Time;durP1;ratioP1;P1;durP2;ratioP2;P2;SDS_P1;SDS_P2;PMS_P1;PMS_P2;Temp;Humidity;BMP_temperature;BMP_pressure;BME280_temperature;BME280_humidity;BME280_pressure;Samples;Min_cycle;Max_cycle;Signal;HPM_P1;HPM_P2
2022/08/05 00:00:09;;;;;;;;;;;;;;;;;;5112076;28;19955;-87
2022/08/05 00:02:35;;;;;;;;;;;;;;;;;;5095918;28;19973;-88
2022/08/05 00:05:01;;;;;;;;;;;;;;;;;;5096452;28;19973;-88
2022/08/05 00:07:26;;;;;;;;;;;;;;;;;;5100812;28;19959;-89
2022/08/05 00:09:51;;;;;;;;;;;;;;;;;;5112204;28;20030;-89
2022/08/05 00:12:17;;;;;;;;;;;;;;;;;;5094999;28;20307;-89
2022/08/05 00:14:42;;;;;;;;;;;;;;;;;;5096356;28;19922;-90
2022/08/05 00:17:07;;;;;;;;;;;;;;;;;;5096128;28;19912;-87
2022/08/05 00:19:32;;;;;;;;;;;;;;;;;;5095812;28;19917;-87
2022/08/05 00:21:58;;;;;;;;;;;;;;;;;;5096173;28;19912;-89
2022/08/05 00:24:23;;;;;;;;;;;;;;;;;;5095897;28;20006;-88
2022/08/05 00:26:49;;;;;;;;;;;;;;;;;;5109516;28;19924;-86
2022/08/05 00:29:14;;;;;;;;;;;;;;;;;;5096017;28;19912;-87
2022/08/05 00:31:39;;;;;;;;;;;;;;;;;;5095710;28;19917;-89
2022/08/05 00:34:04;;;;;;;;;;;;;;;;;;5095737;28;19939;-88
2022/08/05 00:36:30;;;;;;;;;;;;;;;;;;5096078;28;20412;-89
2022/08/05 00:38:55;;;;;;;;;;;;;;;;;;5095663;28;19916;-88
2022/08/05 00:41:30;;;;;;;;;;;;;;;;;;5094381;28;19912;-89
2022/08/05 00:43:56;;;;;;;;;;;;;;;;;;5095520;28;20235;-89
2022/08/05 00:46:21;;;;;;;;;;;;;;;;;;5113258;28;19996;-88
2022/08/05 00:48:46;;;;;;;;;;;;;;;;;;5124403;28;19974;-89
2022/08/05 00:51:12;;;;;;;;;;;;;;;;;;5094416;28;20314;-89
2022/08/05 00:53:37;;;;;;;;;;;;;;;;;;5110897;28;19916;-87
2022/08/05 00:56:03;;;;;;;;;;;;;;;;;;5093766;28;20006;-87
2022/08/05 00:58:28;;;;;;;;;;;;;;;;;;5094101;28;19916;-87
2022/08/05 01:00:54;;;;;;;;;;;;;;;;;;5110815;28;19924;-86
2022/08/05 01:03:19;;;;;;;;;;;;;;;;;;5110784;28;19955;-89
2022/08/05 01:05:46;;;;;;;;;;;;;;;;;;5109904;28;19924;-89
2022/08/05 01:08:12;;;;;;;;;;;;;;;;;;5111789;28;19916;-89
2022/08/05 01:10:40;;;;;;;;;;;;;;;;;;5099579;28;19955;-87
2022/08/05 01:13:12;;;;;;;;;;;;;;;;;;5111266;28;19999;-90
2022/08/05 01:15:38;;;;;;;;;;;;;;;;;;5110501;28;19923;-89
2022/08/05 01:18:04;;;;;;;;;;;;;;;;;;5095050;28;19916;-89
2022/08/05 01:20:41;;;;;;;;;;;;;;;;;;5110609;28;20265;-88
2022/08/05 01:23:07;;;;;;;;;;;;;;;;;;5094803;28;19916;-87
2022/08/05 01:26:04;;;;;;;;;;;;;;;;;;5093718;28;20015;-88
2022/08/05 01:28:46;;;;;;;;;;;;;;;;;;5054156;28;19917;-89
2022/08/05 01:31:24;;;;;;;;;;;;;;;;;;5102524;28;19975;-88
2022/08/05 01:33:58;;;;;;;;;;;;;;;;;;5094657;28;19922;-89
2022/08/05 01:36:24;;;;;;;;;;;;;;;;;;5094954;28;19916;-88
2022/08/05 01:38:50;;;;;;;;;;;;;;;;;;5093673;28;19923;-88
2022/08/05 01:41:16;;;;;;;;;;;;;;;;;;5111378;28;19916;-89
2022/08/05 01:43:41;;;;;;;;;;;;;;;;;;5110579;28;19922;-87
2022/08/05 01:46:06;;;;;;;;;;;;;;;;;;5110491;28;19916;-87
2022/08/05 01:48:32;;;;;;;;;;;;;;;;;;5110673;28;19920;-87
2022/08/05 01:50:57;;;;;;;;;;;;;;;;;;5119231;28;20292;-87
2022/08/05 01:53:23;;;;;;;;;;;;;;;;;;5110500;28;19916;-87
2022/08/05 01:55:48;;;;;;;;;;;;;;;;;;5110577;28;19965;-88
2022/08/05 01:58:14;;;;;;;;;;;;;;;;;;5094497;28;20010;-88
2022/08/05 02:00:41;;;;;;;;;;;;;;;;;;5094388;28;19948;-87
2022/08/05 02:03:15;;;;;;;;;;;;;;;;;;5094776;28;20341;-89
2022/08/05 02:05:40;;;;;;;;;;;;;;;;;;5110158;28;20326;-88
2022/08/05 02:08:06;;;;;;;;;;;;;;;;;;5093436;28;19916;-88
2022/08/05 02:10:44;;;;;;;;;;;;;;;;;;5096107;28;20057;-89
2022/08/05 02:13:29;;;;;;;;;;;;;;;;;;5095078;28;20241;-88
2022/08/05 02:16:13;;;;;;;;;;;;;;;;;;5094474;28;19924;-87
2022/08/05 02:18:39;;;;;;;;;;;;;;;;;;5098237;28;20348;-89
2022/08/05 02:21:06;;;;;;;;;;;;;;;;;;5098471;28;19952;-88
2022/08/05 02:23:32;;;;;;;;;;;;;;;;;;5097656;28;19965;-87
2022/08/05 02:25:57;;;;;;;;;;;;;;;;;;5114155;28;19920;-87
2022/08/05 02:28:24;;;;;;;;;;;;;;;;;;5102485;28;19909;-88
2022/08/05 02:30:51;;;;;;;;;;;;;;;;;;5098661;28;19927;-88
2022/08/05 02:33:16;;;;;;;;;;;;;;;;;;5137398;28;19912;-86
2022/08/05 02:35:41;;;;;;;;;;;;;;;;;;5137999;28;19995;-86
2022/08/05 02:38:07;;;;;;;;;;;;;;;;;;5120957;28;19908;-87
2022/08/05 02:40:32;;;;;;;;;;;;;;;;;;5118684;28;19920;-87
2022/08/05 02:42:57;;;;;;;;;;;;;;;;;;5097690;28;19916;-89
2022/08/05 02:45:24;;;;;;;;;;;;;;;;;;5097662;28;19921;-88
2022/08/05 02:47:50;;;;;;;;;;;;;;;;;;5098246;28;19922;-88
2022/08/05 02:50:15;;;;;;;;;;;;;;;;;;5113610;28;19912;-88
2022/08/05 02:52:41;;;;;;;;;;;;;;;;;;5115057;28;19917;-87
2022/08/05 02:55:06;;;;;;;;;;;;;;;;;;5114551;28;19962;-88
2022/08/05 02:57:32;;;;;;;;;;;;;;;;;;5113044;28;19963;-87
2022/08/05 02:59:57;;;;;;;;;;;;;;;;;;5097822;28;19966;-87
2022/08/05 03:02:23;;;;;;;;;;;;;;;;;;5113243;28;19923;-87
2022/08/05 03:04:49;;;;;;;;;;;;;;;;;;5098042;28;19989;-87
2022/08/05 03:07:14;;;;;;;;;;;;;;;;;;5113686;28;20379;-88
2022/08/05 03:09:41;;;;;;;;;;;;;;;;;;5113187;28;19920;-87
2022/08/05 03:12:06;;;;;;;;;;;;;;;;;;5097198;28;19923;-88
2022/08/05 03:14:31;;;;;;;;;;;;;;;;;;5103673;28;19916;-87
2022/08/05 03:16:57;;;;;;;;;;;;;;;;;;5097445;28;19920;-87
2022/08/05 03:19:22;;;;;;;;;;;;;;;;;;5097367;28;20285;-87
2022/08/05 03:21:47;;;;;;;;;;;;;;;;;;5097223;28;19955;-89
2022/08/05 03:24:13;;;;;;;;;;;;;;;;;;5096965;28;19916;-88
2022/08/05 03:26:38;;;;;;;;;;;;;;;;;;5112591;28;19916;-89
2022/08/05 03:29:03;;;;;;;;;;;;;;;;;;5096346;28;19916;-89
2022/08/05 03:31:29;;;;;;;;;;;;;;;;;;5112885;28;19923;-88
2022/08/05 03:33:55;;;;;;;;;;;;;;;;;;5114154;28;19916;-87
2022/08/05 03:36:20;;;;;;;;;;;;;;;;;;5117512;28;19942;-88
2022/08/05 03:38:46;;;;;;;;;;;;;;;;;;5097079;28;19920;-89
2022/08/05 03:41:11;;;;;;;;;;;;;;;;;;5096712;28;19916;-88
2022/08/05 03:43:36;;;;;;;;;;;;;;;;;;5096726;28;19916;-88
2022/08/05 03:46:02;;;;;;;;;;;;;;;;;;5096802;28;19915;-88
2022/08/05 03:48:27;;;;;;;;;;;;;;;;;;5096688;28;19916;-88
2022/08/05 03:50:58;;;;;;;;;;;;;;;;;;5112734;28;19916;-88
2022/08/05 03:53:28;;;;;;;;;;;;;;;;;;5112502;28;19924;-88
2022/08/05 03:56:02;;;;;;;;;;;;;;;;;;5104403;28;19942;-88
2022/08/05 03:58:28;;;;;;;;;;;;;;;;;;5112626;28;19916;-87
2022/08/05 04:00:53;;;;;;;;;;;;;;;;;;5112112;28;20301;-90
2022/08/05 04:03:18;;;;;;;;;;;;;;;;;;5096207;28;20366;-88
2022/08/05 04:05:44;;;;;;;;;;;;;;;;;;5111979;28;20370;-89
2022/08/05 04:08:09;;;;;;;;;;;;;;;;;;5112384;28;19923;-90
2022/08/05 04:10:35;;;;;;;;;;;;;;;;;;5096214;28;20222;-89
2022/08/05 04:13:01;;;;;;;;;;;;;;;;;;5096476;28;19916;-91
2022/08/05 04:15:27;;;;;;;;;;;;;;;;;;5116511;28;19927;-87
2022/08/05 04:17:52;;;;;;;;;;;;;;;;;;5117456;28;19916;-89
2022/08/05 04:20:18;;;;;;;;;;;;;;;;;;5111856;28;19989;-89
2022/08/05 04:22:44;;;;;;;;;;;;;;;;;;5096201;28;19916;-89
2022/08/05 04:25:09;;;;;;;;;;;;;;;;;;5095936;28;19923;-89
2022/08/05 04:27:34;;;;;;;;;;;;;;;;;;5094465;28;20015;-89
2022/08/05 04:30:00;;;;;;;;;;;;;;;;;;5096037;28;20291;-89
2022/08/05 04:32:25;;;;;;;;;;;;;;;;;;5097149;28;19916;-88
2022/08/05 04:34:50;;;;;;;;;;;;;;;;;;5094238;28;19939;-90
2022/08/05 04:37:16;;;;;;;;;;;;;;;;;;5102654;28;19919;-89
2022/08/05 04:39:41;;;;;;;;;;;;;;;;;;5096374;28;20330;-88
2022/08/05 04:42:06;;;;;;;;;;;;;;;;;;5095944;28;19924;-89
2022/08/05 04:44:32;;;;;;;;;;;;;;;;;;5094262;28;20387;-87
2022/08/05 04:46:57;;;;;;;;;;;;;;;;;;5095654;28;20029;-87
2022/08/05 04:49:23;;;;;;;;;;;;;;;;;;5095687;28;20002;-89
2022/08/05 04:51:48;;;;;;;;;;;;;;;;;;5094085;28;19916;-89
2022/08/05 04:54:13;;;;;;;;;;;;;;;;;;5095626;28;19916;-88
2022/08/05 04:56:39;;;;;;;;;;;;;;;;;;5103695;28;20179;-88
2022/08/05 04:59:04;;;;;;;;;;;;;;;;;;5111560;28;19927;-89
2022/08/05 05:01:29;;;;;;;;;;;;;;;;;;5095552;28;19917;-90
2022/08/05 05:03:54;;;;;;;;;;;;;;;;;;5095357;28;20031;-88
2022/08/05 05:06:20;;;;;;;;;;;;;;;;;;5095647;28;19916;-89
2022/08/05 05:08:46;;;;;;;;;;;;;;;;;;5095368;28;19912;-89
2022/08/05 05:11:11;;;;;;;;;;;;;;;;;;5094078;28;19965;-89
2022/08/05 05:13:36;;;;;;;;;;;;;;;;;;5111814;28;19917;-89
2022/08/05 05:16:02;;;;;;;;;;;;;;;;;;5097934;28;19970;-88
2022/08/05 05:18:27;;;;;;;;;;;;;;;;;;5098626;28;19924;-88
2022/08/05 05:20:52;;;;;;;;;;;;;;;;;;5095054;28;19916;-88
2022/08/05 05:23:18;;;;;;;;;;;;;;;;;;5110670;28;19912;-89
2022/08/05 05:25:43;;;;;;;;;;;;;;;;;;5095049;28;20326;-90
2022/08/05 05:28:09;;;;;;;;;;;;;;;;;;5110544;28;20321;-88
2022/08/05 05:30:34;;;;;;;;;;;;;;;;;;5110930;28;19916;-88
2022/08/05 05:33:00;;;;;;;;;;;;;;;;;;5110511;28;19962;-88
2022/08/05 05:35:25;;;;;;;;;;;;;;;;;;5095343;28;19916;-89
2022/08/05 05:37:50;;;;;;;;;;;;;;;;;;5118618;28;20268;-88
2022/08/05 05:40:16;;;;;;;;;;;;;;;;;;5097841;28;20395;-86
2022/08/05 05:42:41;;;;;;;;;;;;;;;;;;5110735;28;19917;-86
2022/08/05 05:45:07;;;;;;;;;;;;;;;;;;5095059;28;20321;-87
2022/08/05 05:47:34;;;;;;;;;;;;;;;;;;5110657;28;20330;-89
2022/08/05 05:49:59;;;;;;;;;;;;;;;;;;5094980;28;19977;-90
2022/08/05 05:52:24;;;;;;;;;;;;;;;;;;5098440;28;19920;-88
2022/08/05 05:54:49;;;;;;;;;;;;;;;;;;5099189;28;19920;-89
2022/08/05 05:57:15;;;;;;;;;;;;;;;;;;5100504;28;19916;-87
2022/08/05 05:59:40;;;;;;;;;;;;;;;;;;5112714;28;19916;-89
2022/08/05 06:02:05;;;;;;;;;;;;;;;;;;5099369;28;19916;-81
2022/08/05 06:04:31;;;;;;;;;;;;;;;;;;5097360;28;19939;-80
2022/08/05 06:06:56;;;;;;;;;;;;;;;;;;5098700;28;20241;-80
2022/08/05 06:09:21;;;;;;;;;;;;;;;;;;5098869;28;19916;-81
2022/08/05 06:11:47;;;;;;;;;;;;;;;;;;5098483;28;19916;-81
2022/08/05 06:14:12;;;;;;;;;;;;;;;;;;5098543;28;19916;-80
2022/08/05 06:16:37;;;;;;;;;;;;;;;;;;5098421;28;19973;-79
2022/08/05 06:19:03;;;;;;;;;;;;;;;;;;5097132;28;19963;-80
2022/08/05 06:21:31;;;;;;;;;;;;;;;;;;5097880;28;19923;-82
2022/08/05 06:23:57;;;;;;;;;;;;;;;;;;5098450;28;19939;-80
2022/08/05 06:26:23;;;;;;;;;;;;;;;;;;5098219;28;20322;-80
2022/08/05 06:28:48;;;;;;;;;;;;;;;;;;5098539;28;19920;-81
2022/08/05 06:31:13;;;;;;;;;;;;;;;;;;5098527;28;20292;-80
2022/08/05 06:33:39;;;;;;;;;;;;;;;;;;5097764;28;20300;-80
2022/08/05 06:36:04;;;;;;;;;;;;;;;;;;5097833;28;19916;-80
2022/08/05 06:38:29;;;;;;;;;;;;;;;;;;5098021;28;19922;-80
2022/08/05 06:40:55;;;;;;;;;;;;;;;;;;5098133;28;19974;-80
2022/08/05 06:43:20;;;;;;;;;;;;;;;;;;5098230;28;19955;-82
2022/08/05 06:45:45;;;;;;;;;;;;;;;;;;5096487;28;19927;-81
2022/08/05 06:48:11;;;;;;;;;;;;;;;;;;5097779;28;20261;-81
2022/08/05 06:50:36;;;;;;;;;;;;;;;;;;5097190;28;20062;-80
2022/08/05 06:53:01;;;;;;;;;;;;;;;;;;5097414;28;20245;-81
2022/08/05 06:55:27;;;;;;;;;;;;;;;;;;5097517;28;20003;-80
2022/08/05 06:57:52;;;;;;;;;;;;;;;;;;5097670;28;19916;-80
2022/08/05 07:00:17;;;;;;;;;;;;;;;;;;5097553;28;19917;-80
2022/08/05 07:02:43;;;;;;;;;;;;;;;;;;5097505;28;19923;-80
2022/08/05 07:05:10;;;;;;;;;;;;;;;;;;5112900;28;19916;-80
2022/08/05 07:07:36;;;;;;;;;;;;;;;;;;5097719;28;19939;-80
2022/08/05 07:10:01;;;;;;;;;;;;;;;;;;5097683;28;20323;-80
2022/08/05 07:17:54;;;;;;;;;;;;;;;;;;5096818;28;20262;-78
2022/08/05 07:20:19;;;;;;;;;;;;;;;;;;5097230;28;19916;-79
2022/08/05 07:22:44;;;;;;;;;;;;;;;;;;5113392;28;19916;-79
2022/08/05 07:25:10;;;;;;;;;;;;;;;;;;5096835;28;19916;-80
2022/08/05 07:27:35;;;;;;;;;;;;;;;;;;5112604;28;19973;-82
2022/08/05 07:30:00;;;;;;;;;;;;;;;;;;5097244;28;20239;-79
2022/08/05 07:32:25;;;;;;;;;;;;;;;;;;5112375;28;19923;-79
2022/08/05 07:34:52;;;;;;;;;;;;;;;;;;5096914;28;20322;-79
2022/08/05 07:37:17;;;;;;;;;;;;;;;;;;5096964;28;19942;-80
2022/08/05 07:39:43;;;;;;;;;;;;;;;;;;5096898;28;19925;-79
2022/08/05 07:42:08;;;;;;;;;;;;;;;;;;5097341;28;20002;-79
2022/08/05 07:44:33;;;;;;;;;;;;;;;;;;5096905;28;20010;-80
2022/08/05 07:46:59;;;;;;;;;;;;;;;;;;5096750;28;20323;-79
2022/08/05 07:49:24;;;;;;;;;;;;;;;;;;5095121;28;19916;-80
2022/08/05 07:51:49;;;;;;;;;;;;;;;;;;5096536;28;19916;-80
2022/08/05 07:54:15;;;;;;;;;;;;;;;;;;5096638;28;20325;-80
2022/08/05 07:56:40;;;;;;;;;;;;;;;;;;5096946;28;20360;-79
2022/08/05 07:59:05;;;;;;;;;;;;;;;;;;5096656;28;19923;-79
2022/08/05 08:01:31;;;;;;;;;;;;;;;;;;5096412;28;19939;-79
2022/08/05 08:03:56;;;;;;;;;;;;;;;;;;5099103;28;19920;-79
2022/08/05 08:06:22;;;;;;;;;;;;;;;;;;5096437;28;19920;-79
2022/08/05 08:08:47;;;;;;;;;;;;;;;;;;5096223;28;19923;-79
2022/08/05 08:11:14;;;;;;;;;;;;;;;;;;5096512;28;19980;-81
2022/08/05 08:13:39;;;;;;;;;;;;;;;;;;5095617;28;19915;-79
2022/08/05 08:16:04;;;;;;;;;;;;;;;;;;5096139;28;19923;-79
2022/08/05 08:18:30;;;;;;;;;;;;;;;;;;5111575;28;20007;-79
2022/08/05 08:20:55;;;;;;;;;;;;;;;;;;5096272;28;19916;-78
2022/08/05 08:23:21;;;;;;;;;;;;;;;;;;5095713;28;19973;-80
2022/08/05 08:25:46;;;;;;;;;;;;;;;;;;5096900;28;19916;-79
2022/08/05 08:28:11;;;;;;;;;;;;;;;;;;5111364;28;19916;-79
2022/08/05 08:30:37;;;;;;;;;;;;;;;;;;5095510;28;19916;-79
2022/08/05 08:33:06;;;;;;;;;;;;;;;;;;5095473;28;19916;-80
2022/08/05 08:35:31;;;;;;;;;;;;;;;;;;5111289;28;20306;-80
2022/08/05 08:37:57;;;;;;;;;;;;;;;;;;5095536;28;19923;-79
2022/08/05 08:40:22;;;;;;;;;;;;;;;;;;5095452;28;19923;-78
2022/08/05 08:42:48;;;;;;;;;;;;;;;;;;5111558;28;19922;-79
2022/08/05 08:45:14;;;;;;;;;;;;;;;;;;5095198;28;19920;-79
2022/08/05 08:47:39;;;;;;;;;;;;;;;;;;5095831;28;20008;-79
2022/08/05 08:50:05;;;;;;;;;;;;;;;;;;5111247;28;20284;-79
2022/08/05 08:52:32;;;;;;;;;;;;;;;;;;5095418;28;19923;-79
2022/08/05 08:54:57;;;;;;;;;;;;;;;;;;5111018;28;19922;-81
2022/08/05 08:57:22;;;;;;;;;;;;;;;;;;5111212;28;19916;-80
2022/08/05 08:59:48;;;;;;;;;;;;;;;;;;5095304;28;19923;-79
2022/08/05 09:02:13;;;;;;;;;;;;;;;;;;5111609;28;19923;-79
2022/08/05 09:04:39;;;;;;;;;;;;;;;;;;5095244;28;20298;-80
2022/08/05 09:07:05;;;;;;;;;;;;;;;;;;5096662;28;19916;-79
2022/08/05 09:09:30;;;;;;;;;;;;;;;;;;5098819;28;20245;-79
2022/08/05 09:11:57;;;;;;;;;;;;;;;;;;5110671;28;19916;-80
2022/08/05 09:14:22;;;;;;;;;;;;;;;;;;5110806;28;20017;-79
2022/08/05 09:16:47;;;;;;;;;;;;;;;;;;5094976;28;19916;-81
2022/08/05 09:19:13;;;;;;;;;;;;;;;;;;5110669;28;19917;-80
2022/08/05 09:21:38;;;;;;;;;;;;;;;;;;5094972;28;19916;-79
2022/08/05 09:24:04;;;;;;;;;;;;;;;;;;5095120;28;19916;-79
2022/08/05 09:26:29;;;;;;;;;;;;;;;;;;5092735;28;20019;-80
2022/08/05 09:28:58;;;;;;;;;;;;;;;;;;5100645;28;19963;-78
2022/08/05 09:31:23;;;;;;;;;;;;;;;;;;5097910;28;20065;-80
2022/08/05 09:33:54;;;;;;;;;;;;;;;;;;5094598;28;19972;-79
2022/08/05 09:36:20;;;;;;;;;;;;;;;;;;5094857;28;19976;-81
2022/08/05 09:38:58;;;;;;;;;;;;;;;;;;5094563;28;20066;-80
2022/08/05 09:41:23;;;;;;;;;;;;;;;;;;5094708;28;19924;-80
2022/08/05 09:43:49;;;;;;;;;;;;;;;;;;5094439;28;19920;-80
2022/08/05 09:46:24;;;;;;;;;;;;;;;;;;5094677;28;19916;-79
2022/08/05 09:48:51;;;;;;;;;;;;;;;;;;5093478;28;19913;-79
2022/08/05 09:51:16;;;;;;;;;;;;;;;;;;5098391;28;19926;-79
2022/08/05 09:53:48;;;;;;;;;;;;;;;;;;5094759;28;19916;-79
2022/08/05 09:56:13;;;;;;;;;;;;;;;;;;5110516;28;20304;-80
2022/08/05 09:58:38;;;;;;;;;;;;;;;;;;5110187;28;19956;-81
2022/08/05 10:01:07;;;;;;;;;;;;;;;;;;5094618;28;19959;-80
2022/08/05 10:03:33;;;;;;;;;;;;;;;;;;5094273;28;20323;-79
2022/08/05 10:06:08;;;;;;;;;;;;;;;;;;5094638;28;20003;-79
2022/08/05 10:08:34;;;;;;;;;;;;;;;;;;5094895;28;19955;-79
2022/08/05 10:11:01;;;;;;;;;;;;;;;;;;5095272;28;19916;-79
2022/08/05 10:13:27;;;;;;;;;;;;;;;;;;5097565;28;20003;-80
2022/08/05 10:15:54;;;;;;;;;;;;;;;;;;5094643;28;20026;-79
2022/08/05 10:18:21;;;;;;;;;;;;;;;;;;5094171;28;20340;-79
2022/08/05 10:21:13;;;;;;;;;;;;;;;;;;5094502;28;19916;-81
2022/08/05 10:23:38;;;;;;;;;;;;;;;;;;5090119;28;19992;-80
2022/08/05 10:26:07;;;;;;;;;;;;;;;;;;5094094;28;19916;-79
2022/08/05 10:28:33;;;;;;;;;;;;;;;;;;5094401;28;19916;-80
2022/08/05 10:30:58;;;;;;;;;;;;;;;;;;5110073;28;19939;-80
2022/08/05 10:33:24;;;;;;;;;;;;;;;;;;5112718;28;19917;-79
2022/08/05 10:35:50;;;;;;;;;;;;;;;;;;5094412;28;19916;-80
2022/08/05 10:38:15;;;;;;;;;;;;;;;;;;5112815;28;20418;-79
2022/08/05 10:40:42;;;;;;;;;;;;;;;;;;5113802;28;19943;-82
2022/08/05 10:43:10;;;;;;;;;;;;;;;;;;5097495;28;19942;-80
2022/08/05 10:45:36;;;;;;;;;;;;;;;;;;5097746;28;19920;-80
2022/08/05 10:48:37;;;;;;;;;;;;;;;;;;5097831;28;20305;-80
2022/08/05 10:51:05;;;;;;;;;;;;;;;;;;5015257;28;19924;-80
2022/08/05 10:53:41;;;;;;;;;;;;;;;;;;5061021;28;19921;-80
2022/08/05 10:56:13;;;;;;;;;;;;;;;;;;5098703;28;19916;-81
2022/08/05 10:58:59;;;;;;;;;;;;;;;;;;5097833;28;19916;-79
2022/08/05 11:01:28;;;;;;;;;;;;;;;;;;5096874;28;19923;-80
2022/08/05 11:03:59;;;;;;;;;;;;;;;;;;5096175;28;19916;-78
2022/08/05 11:06:25;;;;;;;;;;;;;;;;;;5097116;28;19916;-89
2022/08/05 11:09:17;;;;;;;;;;;;;;;;;;5113089;28;20346;-88
2022/08/05 11:11:43;;;;;;;;;;;;;;;;;;5093160;28;19916;-88
2022/08/05 11:14:10;;;;;;;;;;;;;;;;;;5098139;28;20315;-89
2022/08/05 11:16:35;;;;;;;;;;;;;;;;;;5124255;28;19977;-84
2022/08/05 11:19:19;;;;;;;;;;;;;;;;;;5113448;28;19916;-88
2022/08/05 11:21:44;;;;;;;;;;;;;;;;;;5096991;28;19923;-87
2022/08/05 11:24:10;;;;;;;;;;;;;;;;;;5095692;28;19916;-88
2022/08/05 11:26:35;;;;;;;;;;;;;;;;;;5097121;28;19919;-88
2022/08/05 11:29:01;;;;;;;;;;;;;;;;;;5097170;28;19916;-88
2022/08/05 11:31:29;;;;;;;;;;;;;;;;;;5097138;28;19916;-87
2022/08/05 11:33:56;;;;;;;;;;;;;;;;;;5097017;28;19916;-86
2022/08/05 11:36:37;;;;;;;;;;;;;;;;;;5118464;28;19904;-88
2022/08/05 11:39:02;;;;;;;;;;;;;;;;;;5099805;28;20238;-88
2022/08/05 11:41:28;;;;;;;;;;;;;;;;;;5097349;28;19974;-87
2022/08/05 11:43:56;;;;;;;;;;;;;;;;;;5097132;28;19950;-88
2022/08/05 11:46:28;;;;;;;;;;;;;;;;;;5097087;28;20322;-88
2022/08/05 11:48:59;;;;;;;;;;;;;;;;;;5096126;28;19923;-89
2022/08/05 11:51:25;;;;;;;;;;;;;;;;;;5096471;28;19916;-87
2022/08/05 11:53:51;;;;;;;;;;;;;;;;;;5096505;28;19920;-88
2022/08/05 11:56:16;;;;;;;;;;;;;;;;;;5099404;28;19901;-88
2022/08/05 11:58:43;;;;;;;;;;;;;;;;;;5101954;28;20006;-88
2022/08/05 12:01:12;;;;;;;;;;;;;;;;;;5112522;28;19920;-90
2022/08/05 12:03:41;;;;;;;;;;;;;;;;;;5112220;28;19916;-88
2022/08/05 12:06:07;;;;;;;;;;;;;;;;;;5112493;28;20022;-89
2022/08/05 12:08:34;;;;;;;;;;;;;;;;;;5095994;28;20359;-87
2022/08/05 12:10:59;;;;;;;;;;;;;;;;;;5111890;28;19974;-88
2022/08/05 12:13:25;;;;;;;;;;;;;;;;;;5095958;28;19967;-88
2022/08/05 12:15:50;;;;;;;;;;;;;;;;;;5095945;28;19923;-88
2022/08/05 12:18:18;;;;;;;;;;;;;;;;;;5114831;28;20367;-89
2022/08/05 12:20:44;;;;;;;;;;;;;;;;;;5096404;28;19923;-89
2022/08/05 12:23:09;;;;;;;;;;;;;;;;;;5095846;28;19916;-87
2022/08/05 12:25:51;;;;;;;;;;;;;;;;;;5095840;28;19927;-86
2022/08/05 12:28:43;;;;;;;;;;;;;;;;;;5111255;28;19916;-90
2022/08/05 12:31:08;;;;;;;;;;;;;;;;;;5091638;28;19917;-88
2022/08/05 12:33:33;;;;;;;;;;;;;;;;;;5095614;28;19916;-88
2022/08/05 12:35:59;;;;;;;;;;;;;;;;;;5111220;28;19948;-88
2022/08/05 12:38:40;;;;;;;;;;;;;;;;;;5096567;28;20254;-86
2022/08/05 12:41:06;;;;;;;;;;;;;;;;;;5097731;28;19916;-86
2022/08/05 12:43:31;;;;;;;;;;;;;;;;;;5111021;28;19981;-88
2022/08/05 12:45:57;;;;;;;;;;;;;;;;;;5111126;28;19916;-88
2022/08/05 12:48:22;;;;;;;;;;;;;;;;;;5111333;28;19939;-86
2022/08/05 12:53:50;;;;;;;;;;;;;;;;;;5094926;28;19938;-85
2022/08/05 12:56:16;;;;;;;;;;;;;;;;;;5095360;28;20318;-84
2022/08/05 12:58:42;;;;;;;;;;;;;;;;;;5095143;28;19923;-87
2022/08/05 13:01:07;;;;;;;;;;;;;;;;;;5116089;28;19920;-86
2022/08/05 13:03:36;;;;;;;;;;;;;;;;;;5093715;28;20238;-84
2022/08/05 13:06:01;;;;;;;;;;;;;;;;;;5094791;28;19959;-86
2022/08/05 13:08:27;;;;;;;;;;;;;;;;;;5110824;28;19916;-87
2022/08/05 13:10:58;;;;;;;;;;;;;;;;;;5095119;28;19917;-88
2022/08/05 13:13:25;;;;;;;;;;;;;;;;;;5095196;28;19916;-87
2022/08/05 13:15:51;;;;;;;;;;;;;;;;;;5094665;28;19974;-87
2022/08/05 13:18:17;;;;;;;;;;;;;;;;;;5096174;28;19960;-84
2022/08/05 13:20:42;;;;;;;;;;;;;;;;;;5095866;28;19917;-84
2022/08/05 13:23:07;;;;;;;;;;;;;;;;;;5094820;28;19939;-86
2022/08/05 13:25:34;;;;;;;;;;;;;;;;;;5094556;28;20265;-87
2022/08/05 13:28:00;;;;;;;;;;;;;;;;;;5110712;28;20281;-85
2022/08/05 13:30:25;;;;;;;;;;;;;;;;;;5094460;28;19916;-85
2022/08/05 13:32:51;;;;;;;;;;;;;;;;;;5094817;28;19970;-87
2022/08/05 13:35:17;;;;;;;;;;;;;;;;;;5110594;28;19951;-86
2022/08/05 13:37:42;;;;;;;;;;;;;;;;;;5094418;28;19920;-85
2022/08/05 13:40:08;;;;;;;;;;;;;;;;;;5115427;28;19951;-88
2022/08/05 13:42:33;;;;;;;;;;;;;;;;;;5110480;28;19951;-87
2022/08/05 13:44:58;;;;;;;;;;;;;;;;;;5110005;28;19970;-88
2022/08/05 13:47:24;;;;;;;;;;;;;;;;;;5094632;28;19916;-88
2022/08/05 13:49:50;;;;;;;;;;;;;;;;;;5092908;28;19965;-87
2022/08/05 13:52:22;;;;;;;;;;;;;;;;;;5110404;28;19917;-87
2022/08/05 13:54:47;;;;;;;;;;;;;;;;;;5115824;28;19949;-87
2022/08/05 13:57:13;;;;;;;;;;;;;;;;;;5111346;28;19916;-86
2022/08/05 13:59:38;;;;;;;;;;;;;;;;;;5093101;28;20004;-84
2022/08/05 14:02:04;;;;;;;;;;;;;;;;;;5102967;28;20377;-87
2022/08/05 14:07:14;;;;;;;;;;;;;;;;;;5094072;28;19973;-86
2022/08/05 14:09:41;;;;;;;;;;;;;;;;;;5093622;28;21288;-85
2022/08/05 14:12:06;;;;;;;;;;;;;;;;;;5095720;28;19916;-85
2022/08/05 14:14:32;;;;;;;;;;;;;;;;;;5097292;28;19924;-85
2022/08/05 14:16:57;;;;;;;;;;;;;;;;;;5097171;28;19922;-86
2022/08/05 14:19:22;;;;;;;;;;;;;;;;;;5097041;28;19966;-86
2022/08/05 14:21:47;;;;;;;;;;;;;;;;;;5105062;28;19908;-87
2022/08/05 14:24:13;;;;;;;;;;;;;;;;;;5099474;28;19927;-86
2022/08/05 14:26:38;;;;;;;;;;;;;;;;;;5098271;28;19924;-86
2022/08/05 14:29:04;;;;;;;;;;;;;;;;;;5098271;28;20211;-88
2022/08/05 14:31:29;;;;;;;;;;;;;;;;;;5097977;28;19916;-88
2022/08/05 14:33:54;;;;;;;;;;;;;;;;;;5100752;28;19931;-87
2022/08/05 14:36:20;;;;;;;;;;;;;;;;;;5098415;28;19965;-86
2022/08/05 14:38:45;;;;;;;;;;;;;;;;;;5097796;28;19916;-88
2022/08/05 14:41:10;;;;;;;;;;;;;;;;;;5098064;28;19967;-86
2022/08/05 14:43:36;;;;;;;;;;;;;;;;;;5102661;28;19916;-84
2022/08/05 14:46:01;;;;;;;;;;;;;;;;;;5096986;28;20000;-87
2022/08/05 14:48:27;;;;;;;;;;;;;;;;;;5097774;28;19920;-85
2022/08/05 14:50:52;;;;;;;;;;;;;;;;;;5098059;28;19924;-89
2022/08/05 14:53:17;;;;;;;;;;;;;;;;;;5110999;28;19915;-85
2022/08/05 14:55:43;;;;;;;;;;;;;;;;;;5120132;28;19908;-87
2022/08/05 14:58:08;;;;;;;;;;;;;;;;;;5115640;28;19947;-87
2022/08/05 15:00:34;;;;;;;;;;;;;;;;;;5117061;28;19916;-90
2022/08/05 15:02:59;;;;;;;;;;;;;;;;;;5115560;28;19912;-89
2022/08/05 15:05:26;;;;;;;;;;;;;;;;;;5109034;28;20250;-88
2022/08/05 15:07:51;;;;;;;;;;;;;;;;;;5097696;28;20042;-88
2022/08/05 15:10:16;;;;;;;;;;;;;;;;;;5113318;28;19913;-88
2022/08/05 15:12:42;;;;;;;;;;;;;;;;;;5095992;28;19923;-89
2022/08/05 15:15:07;;;;;;;;;;;;;;;;;;5097552;28;20000;-88
2022/08/05 15:17:33;;;;;;;;;;;;;;;;;;5096164;28;20253;-86
2022/08/05 15:19:58;;;;;;;;;;;;;;;;;;5097383;28;20013;-90
2022/08/05 15:22:23;;;;;;;;;;;;;;;;;;5112585;28;19958;-88
2022/08/05 15:24:49;;;;;;;;;;;;;;;;;;5112472;28;19916;-86
2022/08/05 15:27:14;;;;;;;;;;;;;;;;;;5104850;28;19977;-86
2022/08/05 15:29:39;;;;;;;;;;;;;;;;;;5097257;28;19916;-86
2022/08/05 15:32:04;;;;;;;;;;;;;;;;;;5095551;28;19989;-86
2022/08/05 15:34:30;;;;;;;;;;;;;;;;;;5095938;28;20360;-84
2022/08/05 15:36:55;;;;;;;;;;;;;;;;;;5095887;28;20120;-86
2022/08/05 15:39:21;;;;;;;;;;;;;;;;;;5097038;28;19916;-86
2022/08/05 15:41:46;;;;;;;;;;;;;;;;;;5096619;28;19960;-86
2022/08/05 15:44:12;;;;;;;;;;;;;;;;;;5112502;28;20375;-87
2022/08/05 15:46:37;;;;;;;;;;;;;;;;;;5100974;28;19923;-86
2022/08/05 15:49:02;;;;;;;;;;;;;;;;;;5097344;28;20227;-86
2022/08/05 15:51:28;;;;;;;;;;;;;;;;;;5096682;28;19938;-86
2022/08/05 15:53:53;;;;;;;;;;;;;;;;;;5096435;28;20242;-87
2022/08/05 15:56:19;;;;;;;;;;;;;;;;;;5096351;28;19916;-86
2022/08/05 15:58:45;;;;;;;;;;;;;;;;;;5112389;28;19917;-85
2022/08/05 16:01:12;;;;;;;;;;;;;;;;;;5096705;28;19916;-85
2022/08/05 16:03:38;;;;;;;;;;;;;;;;;;5112004;28;19923;-87
2022/08/05 16:06:03;;;;;;;;;;;;;;;;;;5096996;28;19920;-85
2022/08/05 16:08:29;;;;;;;;;;;;;;;;;;5098151;28;20040;-86
2022/08/05 16:10:54;;;;;;;;;;;;;;;;;;5096613;28;20645;-86
2022/08/05 16:13:19;;;;;;;;;;;;;;;;;;5096259;28;19923;-87
2022/08/05 16:15:45;;;;;;;;;;;;;;;;;;5096304;28;19916;-86
2022/08/05 16:18:11;;;;;;;;;;;;;;;;;;5096203;28;20257;-86
2022/08/05 16:20:36;;;;;;;;;;;;;;;;;;5096474;28;19923;-86
2022/08/05 16:23:02;;;;;;;;;;;;;;;;;;5096240;28;19967;-86
2022/08/05 16:25:28;;;;;;;;;;;;;;;;;;5112022;28;19972;-88
2022/08/05 16:27:53;;;;;;;;;;;;;;;;;;5098440;28;20334;-86
2022/08/05 16:30:18;;;;;;;;;;;;;;;;;;5095679;28;19974;-86
2022/08/05 16:32:43;;;;;;;;;;;;;;;;;;5096378;28;20341;-87
2022/08/05 16:35:09;;;;;;;;;;;;;;;;;;5095361;28;19947;-87
2022/08/05 16:37:36;;;;;;;;;;;;;;;;;;5111348;28;20314;-86
2022/08/05 16:40:02;;;;;;;;;;;;;;;;;;5095846;28;19916;-87
2022/08/05 16:42:28;;;;;;;;;;;;;;;;;;5095458;28;19916;-86
2022/08/05 16:44:53;;;;;;;;;;;;;;;;;;5095159;28;20324;-86
2022/08/05 16:47:18;;;;;;;;;;;;;;;;;;5096001;28;19916;-87
2022/08/05 16:49:44;;;;;;;;;;;;;;;;;;5099481;28;19920;-86
2022/08/05 16:52:09;;;;;;;;;;;;;;;;;;5095529;28;19986;-86